sensor_id;sensor_type;location;lat;lon;timestamp;P1;durP1;ratioP1;P2;durP2;ratioP2
71963;SDS011;59834;52.124;5.422;2023-02-13T00:00:16;20.63;;;10.40;;
71963;SDS011;59834;52.124;5.422;2023-02-13T00:02:44;23.83;;;10.00;;
71963;SDS011;59834;52.124;5.422;2023-02-13T00:05:10;24.25;;;10.40;;
71963;SDS011;59834;52.124;5.422;2023-02-13T00:07:37;21.40;;;10.30;;
71963;SDS011;59834;52.124;5.422;2023-02-13T00:10:03;20.73;;;10.32;;
71963;SDS011;59834;52.124;5.422;2023-02-13T00:12:30;22.60;;;10.50;;
71963;SDS011;59834;52.124;5.422;2023-02-13T00:14:57;21.05;;;10.18;;
71963;SDS011;59834;52.124;5.422;2023-02-13T00:17:24;21.83;;;10.10;;
71963;SDS011;59834;52.124;5.422;2023-02-13T00:19:50;23.58;;;9.32;;
71963;SDS011;59834;52.124;5.422;2023-02-13T00:22:17;20.08;;;8.77;;
71963;SDS011;59834;52.124;5.422;2023-02-13T00:24:44;19.80;;;9.37;;
71963;SDS011;59834;52.124;5.422;2023-02-13T00:27:10;19.13;;;9.05;;
71963;SDS011;59834;52.124;5.422;2023-02-13T00:29:37;21.48;;;9.75;;
71963;SDS011;59834;52.124;5.422;2023-02-13T00:32:03;15.95;;;9.30;;
71963;SDS011;59834;52.124;5.422;2023-02-13T00:34:30;17.20;;;8.85;;
71963;SDS011;59834;52.124;5.422;2023-02-13T00:36:57;22.10;;;8.77;;
71963;SDS011;59834;52.124;5.422;2023-02-13T00:39:23;22.42;;;9.48;;
71963;SDS011;59834;52.124;5.422;2023-02-13T00:41:50;19.67;;;9.07;;
71963;SDS011;59834;52.124;5.422;2023-02-13T00:44:16;17.60;;;8.23;;
71963;SDS011;59834;52.124;5.422;2023-02-13T00:46:42;20.23;;;9.48;;
71963;SDS011;59834;52.124;5.422;2023-02-13T00:49:09;18.40;;;8.17;;
71963;SDS011;59834;52.124;5.422;2023-02-13T00:51:36;21.77;;;9.88;;
71963;SDS011;59834;52.124;5.422;2023-02-13T00:54:02;18.75;;;8.65;;
71963;SDS011;59834;52.124;5.422;2023-02-13T00:56:29;17.77;;;9.00;;
71963;SDS011;59834;52.124;5.422;2023-02-13T00:58:55;16.60;;;8.50;;
71963;SDS011;59834;52.124;5.422;2023-02-13T01:01:22;20.57;;;8.70;;
71963;SDS011;59834;52.124;5.422;2023-02-13T01:03:48;19.33;;;9.23;;
71963;SDS011;59834;52.124;5.422;2023-02-13T01:06:15;21.75;;;9.82;;
71963;SDS011;59834;52.124;5.422;2023-02-13T01:08:41;20.48;;;9.45;;
71963;SDS011;59834;52.124;5.422;2023-02-13T01:11:08;16.83;;;8.57;;
71963;SDS011;59834;52.124;5.422;2023-02-13T01:13:35;21.93;;;9.37;;
71963;SDS011;59834;52.124;5.422;2023-02-13T01:16:01;22.10;;;8.75;;
71963;SDS011;59834;52.124;5.422;2023-02-13T01:18:28;22.10;;;9.48;;
71963;SDS011;59834;52.124;5.422;2023-02-13T01:20:56;20.45;;;8.80;;
71963;SDS011;59834;52.124;5.422;2023-02-13T01:23:34;19.15;;;9.20;;
71963;SDS011;59834;52.124;5.422;2023-02-13T01:26:02;21.27;;;8.13;;
71963;SDS011;59834;52.124;5.422;2023-02-13T01:28:30;19.15;;;8.27;;
71963;SDS011;59834;52.124;5.422;2023-02-13T01:30:57;20.27;;;8.48;;
71963;SDS011;59834;52.124;5.422;2023-02-13T01:33:25;17.63;;;8.98;;
71963;SDS011;59834;52.124;5.422;2023-02-13T01:35:52;18.38;;;9.38;;
71963;SDS011;59834;52.124;5.422;2023-02-13T01:38:19;18.87;;;8.33;;
71963;SDS011;59834;52.124;5.422;2023-02-13T01:40:46;21.58;;;8.88;;
71963;SDS011;59834;52.124;5.422;2023-02-13T01:43:14;20.73;;;8.88;;
71963;SDS011;59834;52.124;5.422;2023-02-13T01:45:41;18.30;;;8.27;;
71963;SDS011;59834;52.124;5.422;2023-02-13T01:48:21;19.17;;;8.40;;
71963;SDS011;59834;52.124;5.422;2023-02-13T01:50:51;20.73;;;8.33;;
71963;SDS011;59834;52.124;5.422;2023-02-13T01:53:25;19.08;;;8.63;;
71963;SDS011;59834;52.124;5.422;2023-02-13T01:56:01;21.10;;;9.57;;
71963;SDS011;59834;52.124;5.422;2023-02-13T01:58:36;23.63;;;10.02;;
71963;SDS011;59834;52.124;5.422;2023-02-13T02:01:06;16.55;;;8.15;;
71963;SDS011;59834;52.124;5.422;2023-02-13T02:06:25;18.67;;;8.25;;
71963;SDS011;59834;52.124;5.422;2023-02-13T02:08:56;20.38;;;8.55;;
71963;SDS011;59834;52.124;5.422;2023-02-13T02:14:12;16.65;;;8.50;;
71963;SDS011;59834;52.124;5.422;2023-02-13T02:16:38;18.37;;;8.67;;
71963;SDS011;59834;52.124;5.422;2023-02-13T02:19:07;21.85;;;9.23;;
71963;SDS011;59834;52.124;5.422;2023-02-13T02:39:13;24.27;;;8.98;;
71963;SDS011;59834;52.124;5.422;2023-02-13T02:48:11;19.13;;;8.43;;
71963;SDS011;59834;52.124;5.422;2023-02-13T02:51:07;20.00;;;8.20;;
71963;SDS011;59834;52.124;5.422;2023-02-13T02:54:11;21.48;;;8.48;;
71963;SDS011;59834;52.124;5.422;2023-02-13T02:56:59;19.02;;;9.70;;
71963;SDS011;59834;52.124;5.422;2023-02-13T02:59:32;21.60;;;9.07;;
71963;SDS011;59834;52.124;5.422;2023-02-13T03:02:39;21.77;;;9.35;;
71963;SDS011;59834;52.124;5.422;2023-02-13T03:05:28;24.48;;;9.13;;
71963;SDS011;59834;52.124;5.422;2023-02-13T03:08:15;24.52;;;10.18;;
71963;SDS011;59834;52.124;5.422;2023-02-13T03:11:02;22.75;;;9.82;;
71963;SDS011;59834;52.124;5.422;2023-02-13T03:13:48;22.87;;;9.20;;
71963;SDS011;59834;52.124;5.422;2023-02-13T03:16:16;17.92;;;8.90;;
71963;SDS011;59834;52.124;5.422;2023-02-13T03:19:04;20.15;;;9.23;;
71963;SDS011;59834;52.124;5.422;2023-02-13T03:22:02;23.05;;;10.15;;
71963;SDS011;59834;52.124;5.422;2023-02-13T03:25:05;22.77;;;9.55;;
71963;SDS011;59834;52.124;5.422;2023-02-13T03:30:35;19.33;;;8.85;;
71963;SDS011;59834;52.124;5.422;2023-02-13T03:39:00;23.20;;;9.90;;
71963;SDS011;59834;52.124;5.422;2023-02-13T03:41:47;21.53;;;9.00;;
71963;SDS011;59834;52.124;5.422;2023-02-13T03:44:39;17.70;;;8.85;;
71963;SDS011;59834;52.124;5.422;2023-02-13T03:47:10;20.98;;;9.32;;
71963;SDS011;59834;52.124;5.422;2023-02-13T03:55:23;24.97;;;10.27;;
71963;SDS011;59834;52.124;5.422;2023-02-13T03:58:18;22.70;;;9.60;;
71963;SDS011;59834;52.124;5.422;2023-02-13T04:01:10;21.65;;;8.75;;
71963;SDS011;59834;52.124;5.422;2023-02-13T04:06:23;20.80;;;10.13;;
71963;SDS011;59834;52.124;5.422;2023-02-13T04:08:59;19.23;;;9.17;;
71963;SDS011;59834;52.124;5.422;2023-02-13T04:12:11;23.65;;;10.25;;
71963;SDS011;59834;52.124;5.422;2023-02-13T04:17:06;22.23;;;9.68;;
71963;SDS011;59834;52.124;5.422;2023-02-13T04:19:37;28.23;;;9.38;;
71963;SDS011;59834;52.124;5.422;2023-02-13T04:22:04;17.83;;;8.70;;
71963;SDS011;59834;52.124;5.422;2023-02-13T04:24:30;22.90;;;9.93;;
71963;SDS011;59834;52.124;5.422;2023-02-13T04:26:57;21.38;;;10.05;;
71963;SDS011;59834;52.124;5.422;2023-02-13T04:29:24;23.65;;;9.73;;
71963;SDS011;59834;52.124;5.422;2023-02-13T04:31:51;18.13;;;8.80;;
71963;SDS011;59834;52.124;5.422;2023-02-13T04:34:18;20.40;;;9.37;;
71963;SDS011;59834;52.124;5.422;2023-02-13T04:36:45;20.35;;;8.77;;
71963;SDS011;59834;52.124;5.422;2023-02-13T04:39:11;23.42;;;10.15;;
71963;SDS011;59834;52.124;5.422;2023-02-13T04:41:38;19.38;;;9.85;;
71963;SDS011;59834;52.124;5.422;2023-02-13T04:44:04;19.38;;;9.25;;
71963;SDS011;59834;52.124;5.422;2023-02-13T04:46:31;22.83;;;10.23;;
71963;SDS011;59834;52.124;5.422;2023-02-13T04:48:57;24.50;;;9.82;;
71963;SDS011;59834;52.124;5.422;2023-02-13T04:51:24;23.75;;;9.73;;
71963;SDS011;59834;52.124;5.422;2023-02-13T04:53:50;22.63;;;9.63;;
71963;SDS011;59834;52.124;5.422;2023-02-13T04:56:17;24.27;;;9.80;;
71963;SDS011;59834;52.124;5.422;2023-02-13T04:58:45;18.10;;;9.47;;
71963;SDS011;59834;52.124;5.422;2023-02-13T05:01:12;18.90;;;8.73;;
71963;SDS011;59834;52.124;5.422;2023-02-13T05:03:40;21.02;;;9.75;;
71963;SDS011;59834;52.124;5.422;2023-02-13T05:06:06;22.67;;;9.65;;
71963;SDS011;59834;52.124;5.422;2023-02-13T05:08:33;23.27;;;10.52;;
71963;SDS011;59834;52.124;5.422;2023-02-13T05:11:00;26.63;;;9.60;;
71963;SDS011;59834;52.124;5.422;2023-02-13T05:13:26;19.88;;;8.88;;
71963;SDS011;59834;52.124;5.422;2023-02-13T05:15:53;23.10;;;10.80;;
71963;SDS011;59834;52.124;5.422;2023-02-13T05:18:19;21.70;;;10.90;;
71963;SDS011;59834;52.124;5.422;2023-02-13T05:20:46;19.45;;;8.98;;
71963;SDS011;59834;52.124;5.422;2023-02-13T05:23:33;22.50;;;9.77;;
71963;SDS011;59834;52.124;5.422;2023-02-13T05:25:59;22.58;;;9.63;;
71963;SDS011;59834;52.124;5.422;2023-02-13T05:28:26;24.92;;;9.68;;
71963;SDS011;59834;52.124;5.422;2023-02-13T05:31:11;20.52;;;9.02;;
71963;SDS011;59834;52.124;5.422;2023-02-13T05:33:38;22.08;;;10.40;;
71963;SDS011;59834;52.124;5.422;2023-02-13T05:36:04;19.77;;;10.00;;
71963;SDS011;59834;52.124;5.422;2023-02-13T05:38:31;20.40;;;9.85;;
71963;SDS011;59834;52.124;5.422;2023-02-13T05:40:58;24.52;;;10.52;;
71963;SDS011;59834;52.124;5.422;2023-02-13T05:43:26;25.73;;;11.00;;
71963;SDS011;59834;52.124;5.422;2023-02-13T05:46:03;26.08;;;11.18;;
71963;SDS011;59834;52.124;5.422;2023-02-13T05:48:31;22.73;;;10.17;;
71963;SDS011;59834;52.124;5.422;2023-02-13T05:50:58;21.13;;;9.63;;
71963;SDS011;59834;52.124;5.422;2023-02-13T05:53:25;22.83;;;10.95;;
71963;SDS011;59834;52.124;5.422;2023-02-13T05:55:52;21.33;;;10.18;;
71963;SDS011;59834;52.124;5.422;2023-02-13T05:58:19;25.75;;;11.07;;
71963;SDS011;59834;52.124;5.422;2023-02-13T06:00:46;21.70;;;10.53;;
71963;SDS011;59834;52.124;5.422;2023-02-13T06:03:13;25.15;;;10.10;;
71963;SDS011;59834;52.124;5.422;2023-02-13T06:05:40;24.60;;;10.18;;
71963;SDS011;59834;52.124;5.422;2023-02-13T06:08:06;27.13;;;9.93;;
71963;SDS011;59834;52.124;5.422;2023-02-13T06:10:33;24.10;;;10.63;;
71963;SDS011;59834;52.124;5.422;2023-02-13T06:12:59;25.70;;;10.90;;
71963;SDS011;59834;52.124;5.422;2023-02-13T06:15:26;24.58;;;10.95;;
71963;SDS011;59834;52.124;5.422;2023-02-13T06:17:52;25.67;;;10.48;;
71963;SDS011;59834;52.124;5.422;2023-02-13T06:20:19;22.52;;;10.40;;
71963;SDS011;59834;52.124;5.422;2023-02-13T06:22:48;24.02;;;11.40;;
71963;SDS011;59834;52.124;5.422;2023-02-13T06:25:16;26.90;;;10.53;;
71963;SDS011;59834;52.124;5.422;2023-02-13T06:27:42;23.00;;;10.10;;
71963;SDS011;59834;52.124;5.422;2023-02-13T06:30:09;24.58;;;10.85;;
71963;SDS011;59834;52.124;5.422;2023-02-13T06:32:36;22.73;;;11.10;;
71963;SDS011;59834;52.124;5.422;2023-02-13T06:35:02;23.10;;;10.63;;
71963;SDS011;59834;52.124;5.422;2023-02-13T06:37:31;23.03;;;9.87;;
71963;SDS011;59834;52.124;5.422;2023-02-13T06:39:57;29.73;;;11.93;;
71963;SDS011;59834;52.124;5.422;2023-02-13T06:42:24;27.15;;;10.98;;
71963;SDS011;59834;52.124;5.422;2023-02-13T06:44:51;26.67;;;10.10;;
71963;SDS011;59834;52.124;5.422;2023-02-13T06:47:18;25.00;;;10.85;;
71963;SDS011;59834;52.124;5.422;2023-02-13T06:49:44;25.83;;;12.20;;
71963;SDS011;59834;52.124;5.422;2023-02-13T06:52:10;23.92;;;11.23;;
71963;SDS011;59834;52.124;5.422;2023-02-13T06:54:37;26.90;;;11.43;;
71963;SDS011;59834;52.124;5.422;2023-02-13T06:57:12;24.67;;;10.23;;
71963;SDS011;59834;52.124;5.422;2023-02-13T06:59:39;24.45;;;11.48;;
71963;SDS011;59834;52.124;5.422;2023-02-13T07:02:07;26.17;;;11.67;;
71963;SDS011;59834;52.124;5.422;2023-02-13T07:04:35;24.63;;;11.60;;
71963;SDS011;59834;52.124;5.422;2023-02-13T07:07:02;24.73;;;11.05;;
71963;SDS011;59834;52.124;5.422;2023-02-13T07:09:29;27.27;;;10.93;;
71963;SDS011;59834;52.124;5.422;2023-02-13T07:11:57;23.80;;;10.40;;
71963;SDS011;59834;52.124;5.422;2023-02-13T07:14:23;23.40;;;11.03;;
71963;SDS011;59834;52.124;5.422;2023-02-13T07:16:50;28.52;;;11.38;;
71963;SDS011;59834;52.124;5.422;2023-02-13T07:19:16;27.55;;;11.63;;
71963;SDS011;59834;52.124;5.422;2023-02-13T07:21:42;26.85;;;12.02;;
71963;SDS011;59834;52.124;5.422;2023-02-13T07:24:09;26.92;;;12.02;;
71963;SDS011;59834;52.124;5.422;2023-02-13T07:26:35;24.33;;;11.60;;
71963;SDS011;59834;52.124;5.422;2023-02-13T07:29:02;26.67;;;11.40;;
71963;SDS011;59834;52.124;5.422;2023-02-13T07:31:37;28.15;;;11.25;;
71963;SDS011;59834;52.124;5.422;2023-02-13T07:34:04;25.77;;;12.07;;
71963;SDS011;59834;52.124;5.422;2023-02-13T07:36:31;28.17;;;12.32;;
71963;SDS011;59834;52.124;5.422;2023-02-13T07:38:57;24.73;;;11.80;;
71963;SDS011;59834;52.124;5.422;2023-02-13T07:41:23;29.77;;;12.40;;
71963;SDS011;59834;52.124;5.422;2023-02-13T07:43:53;25.00;;;11.70;;
71963;SDS011;59834;52.124;5.422;2023-02-13T07:46:20;31.70;;;13.05;;
71963;SDS011;59834;52.124;5.422;2023-02-13T07:48:47;32.95;;;11.85;;
71963;SDS011;59834;52.124;5.422;2023-02-13T07:51:13;25.90;;;11.60;;
71963;SDS011;59834;52.124;5.422;2023-02-13T07:53:41;27.92;;;12.05;;
71963;SDS011;59834;52.124;5.422;2023-02-13T07:56:07;25.00;;;12.48;;
71963;SDS011;59834;52.124;5.422;2023-02-13T07:58:35;28.77;;;12.80;;
71963;SDS011;59834;52.124;5.422;2023-02-13T08:01:06;26.73;;;13.70;;
71963;SDS011;59834;52.124;5.422;2023-02-13T08:03:33;27.33;;;11.97;;
71963;SDS011;59834;52.124;5.422;2023-02-13T08:06:00;24.20;;;12.63;;
71963;SDS011;59834;52.124;5.422;2023-02-13T08:08:27;25.75;;;11.52;;
71963;SDS011;59834;52.124;5.422;2023-02-13T08:10:53;24.90;;;12.05;;
71963;SDS011;59834;52.124;5.422;2023-02-13T08:13:39;23.15;;;12.95;;
71963;SDS011;59834;52.124;5.422;2023-02-13T08:16:06;26.10;;;12.70;;
71963;SDS011;59834;52.124;5.422;2023-02-13T08:18:32;28.63;;;12.23;;
71963;SDS011;59834;52.124;5.422;2023-02-13T08:21:02;26.75;;;12.23;;
71963;SDS011;59834;52.124;5.422;2023-02-13T08:23:29;26.35;;;12.90;;
71963;SDS011;59834;52.124;5.422;2023-02-13T08:25:58;27.60;;;13.40;;
71963;SDS011;59834;52.124;5.422;2023-02-13T08:28:26;28.40;;;13.00;;
71963;SDS011;59834;52.124;5.422;2023-02-13T08:30:54;27.30;;;12.95;;
71963;SDS011;59834;52.124;5.422;2023-02-13T08:33:21;26.65;;;12.35;;
71963;SDS011;59834;52.124;5.422;2023-02-13T08:35:47;22.48;;;12.25;;
71963;SDS011;59834;52.124;5.422;2023-02-13T08:38:13;25.48;;;13.05;;
71963;SDS011;59834;52.124;5.422;2023-02-13T08:40:40;26.43;;;12.30;;
71963;SDS011;59834;52.124;5.422;2023-02-13T08:43:06;27.95;;;12.38;;
71963;SDS011;59834;52.124;5.422;2023-02-13T08:45:34;25.10;;;12.70;;
71963;SDS011;59834;52.124;5.422;2023-02-13T08:48:00;26.25;;;12.73;;
71963;SDS011;59834;52.124;5.422;2023-02-13T08:50:29;25.13;;;11.38;;
71963;SDS011;59834;52.124;5.422;2023-02-13T08:52:56;22.87;;;11.43;;
71963;SDS011;59834;52.124;5.422;2023-02-13T08:55:23;26.50;;;12.45;;
71963;SDS011;59834;52.124;5.422;2023-02-13T08:57:50;27.20;;;13.38;;
71963;SDS011;59834;52.124;5.422;2023-02-13T09:00:17;23.75;;;11.23;;
71963;SDS011;59834;52.124;5.422;2023-02-13T09:02:45;20.92;;;11.70;;
71963;SDS011;59834;52.124;5.422;2023-02-13T09:05:11;22.03;;;11.57;;
71963;SDS011;59834;52.124;5.422;2023-02-13T09:07:38;25.77;;;11.93;;
71963;SDS011;59834;52.124;5.422;2023-02-13T09:10:04;22.38;;;11.63;;
71963;SDS011;59834;52.124;5.422;2023-02-13T09:12:31;22.33;;;11.50;;
71963;SDS011;59834;52.124;5.422;2023-02-13T09:14:58;23.75;;;10.95;;
71963;SDS011;59834;52.124;5.422;2023-02-13T09:17:24;25.73;;;12.53;;
71963;SDS011;59834;52.124;5.422;2023-02-13T09:19:51;22.17;;;11.15;;
71963;SDS011;59834;52.124;5.422;2023-02-13T09:22:17;27.35;;;12.57;;
71963;SDS011;59834;52.124;5.422;2023-02-13T09:24:43;23.20;;;11.98;;
71963;SDS011;59834;52.124;5.422;2023-02-13T09:27:10;21.05;;;10.75;;
71963;SDS011;59834;52.124;5.422;2023-02-13T09:29:36;27.07;;;11.33;;
71963;SDS011;59834;52.124;5.422;2023-02-13T09:32:03;21.45;;;11.75;;
71963;SDS011;59834;52.124;5.422;2023-02-13T09:34:30;22.25;;;11.10;;
71963;SDS011;59834;52.124;5.422;2023-02-13T09:36:57;25.35;;;12.23;;
71963;SDS011;59834;52.124;5.422;2023-02-13T09:39:23;21.33;;;10.98;;
71963;SDS011;59834;52.124;5.422;2023-02-13T09:41:50;22.10;;;10.93;;
71963;SDS011;59834;52.124;5.422;2023-02-13T09:44:19;20.23;;;9.82;;
71963;SDS011;59834;52.124;5.422;2023-02-13T09:49:54;22.65;;;12.10;;
71963;SDS011;59834;52.124;5.422;2023-02-13T09:52:30;18.10;;;11.05;;
71963;SDS011;59834;52.124;5.422;2023-02-13T09:54:58;19.00;;;10.73;;
71963;SDS011;59834;52.124;5.422;2023-02-13T09:57:27;18.92;;;9.93;;
71963;SDS011;59834;52.124;5.422;2023-02-13T10:05:40;22.48;;;11.68;;
71963;SDS011;59834;52.124;5.422;2023-02-13T10:08:30;21.17;;;12.07;;
71963;SDS011;59834;52.124;5.422;2023-02-13T10:22:21;20.07;;;10.30;;
71963;SDS011;59834;52.124;5.422;2023-02-13T10:25:00;23.63;;;10.60;;
71963;SDS011;59834;52.124;5.422;2023-02-13T10:27:33;23.15;;;11.30;;
71963;SDS011;59834;52.124;5.422;2023-02-13T10:35:57;21.53;;;10.87;;
71963;SDS011;59834;52.124;5.422;2023-02-13T10:38:31;18.38;;;10.75;;
71963;SDS011;59834;52.124;5.422;2023-02-13T11:00:41;18.65;;;10.43;;
71963;SDS011;59834;52.124;5.422;2023-02-13T11:03:18;23.43;;;12.00;;
71963;SDS011;59834;52.124;5.422;2023-02-13T11:05:47;19.08;;;10.80;;
71963;SDS011;59834;52.124;5.422;2023-02-13T11:08:16;23.13;;;12.40;;
71963;SDS011;59834;52.124;5.422;2023-02-13T11:10:45;23.60;;;11.82;;
71963;SDS011;59834;52.124;5.422;2023-02-13T11:13:19;18.88;;;11.00;;
71963;SDS011;59834;52.124;5.422;2023-02-13T11:18:30;18.85;;;10.50;;
71963;SDS011;59834;52.124;5.422;2023-02-13T11:21:01;18.23;;;11.02;;
71963;SDS011;59834;52.124;5.422;2023-02-13T11:26:08;20.38;;;11.50;;
71963;SDS011;59834;52.124;5.422;2023-02-13T11:28:44;21.37;;;11.23;;
71963;SDS011;59834;52.124;5.422;2023-02-13T11:33:55;19.15;;;10.40;;
71963;SDS011;59834;52.124;5.422;2023-02-13T11:36:28;19.15;;;10.02;;
71963;SDS011;59834;52.124;5.422;2023-02-13T11:39:04;19.70;;;9.93;;
71963;SDS011;59834;52.124;5.422;2023-02-13T11:41:39;16.07;;;10.10;;
71963;SDS011;59834;52.124;5.422;2023-02-13T11:44:27;20.38;;;10.57;;
71963;SDS011;59834;52.124;5.422;2023-02-13T11:46:57;19.88;;;11.82;;
71963;SDS011;59834;52.124;5.422;2023-02-13T11:49:36;20.23;;;10.95;;
71963;SDS011;59834;52.124;5.422;2023-02-13T11:52:05;18.13;;;10.18;;
71963;SDS011;59834;52.124;5.422;2023-02-13T11:54:37;19.80;;;10.33;;
71963;SDS011;59834;52.124;5.422;2023-02-13T11:57:17;22.67;;;10.10;;
71963;SDS011;59834;52.124;5.422;2023-02-13T11:59:54;20.98;;;10.18;;
71963;SDS011;59834;52.124;5.422;2023-02-13T12:02:26;22.38;;;10.43;;
71963;SDS011;59834;52.124;5.422;2023-02-13T12:05:16;18.08;;;10.38;;
71963;SDS011;59834;52.124;5.422;2023-02-13T12:07:46;20.20;;;9.57;;
71963;SDS011;59834;52.124;5.422;2023-02-13T12:10:23;21.77;;;10.00;;
71963;SDS011;59834;52.124;5.422;2023-02-13T12:15:36;15.25;;;9.30;;
71963;SDS011;59834;52.124;5.422;2023-02-13T12:27:04;13.95;;;9.05;;
71963;SDS011;59834;52.124;5.422;2023-02-13T12:29:47;18.73;;;9.50;;
71963;SDS011;59834;52.124;5.422;2023-02-13T12:32:38;16.10;;;9.82;;
71963;SDS011;59834;52.124;5.422;2023-02-13T12:37:58;19.45;;;10.40;;
71963;SDS011;59834;52.124;5.422;2023-02-13T12:45:59;17.90;;;9.52;;
71963;SDS011;59834;52.124;5.422;2023-02-13T12:51:29;17.33;;;10.13;;
71963;SDS011;59834;52.124;5.422;2023-02-13T12:54:16;17.75;;;9.55;;
71963;SDS011;59834;52.124;5.422;2023-02-13T12:59:30;16.20;;;10.07;;
71963;SDS011;59834;52.124;5.422;2023-02-13T13:03:13;25.40;;;10.43;;
71963;SDS011;59834;52.124;5.422;2023-02-13T13:05:24;18.13;;;9.88;;
71963;SDS011;59834;52.124;5.422;2023-02-13T13:19:07;20.27;;;9.27;;
71963;SDS011;59834;52.124;5.422;2023-02-13T13:21:43;16.15;;;9.55;;
71963;SDS011;59834;52.124;5.422;2023-02-13T13:24:23;17.17;;;9.68;;
71963;SDS011;59834;52.124;5.422;2023-02-13T13:27:03;18.45;;;8.55;;
71963;SDS011;59834;52.124;5.422;2023-02-13T13:29:42;16.77;;;9.53;;
71963;SDS011;59834;52.124;5.422;2023-02-13T13:32:13;20.13;;;9.40;;
71963;SDS011;59834;52.124;5.422;2023-02-13T13:34:43;20.77;;;9.98;;
71963;SDS011;59834;52.124;5.422;2023-02-13T13:39:58;19.63;;;10.32;;
71963;SDS011;59834;52.124;5.422;2023-02-13T13:47:47;17.85;;;9.32;;
71963;SDS011;59834;52.124;5.422;2023-02-13T13:50:26;20.98;;;10.45;;
71963;SDS011;59834;52.124;5.422;2023-02-13T13:55:59;19.97;;;9.37;;
71963;SDS011;59834;52.124;5.422;2023-02-13T13:58:44;16.10;;;9.30;;
71963;SDS011;59834;52.124;5.422;2023-02-13T14:14:55;16.92;;;9.85;;
71963;SDS011;59834;52.124;5.422;2023-02-13T14:22:55;17.07;;;9.70;;
71963;SDS011;59834;52.124;5.422;2023-02-13T14:25:30;15.63;;;8.98;;
71963;SDS011;59834;52.124;5.422;2023-02-13T14:28:01;22.15;;;9.55;;
71963;SDS011;59834;52.124;5.422;2023-02-13T14:30:30;15.38;;;9.68;;
71963;SDS011;59834;52.124;5.422;2023-02-13T14:33:00;13.68;;;8.50;;
71963;SDS011;59834;52.124;5.422;2023-02-13T14:35:32;16.37;;;9.67;;
71963;SDS011;59834;52.124;5.422;2023-02-13T14:38:03;18.45;;;9.35;;
71963;SDS011;59834;52.124;5.422;2023-02-13T14:40:49;16.55;;;8.95;;
71963;SDS011;59834;52.124;5.422;2023-02-13T14:45:55;16.27;;;8.52;;
71963;SDS011;59834;52.124;5.422;2023-02-13T14:48:28;16.67;;;8.37;;
71963;SDS011;59834;52.124;5.422;2023-02-13T14:51:00;17.65;;;9.75;;
71963;SDS011;59834;52.124;5.422;2023-02-13T14:53:48;19.17;;;9.63;;
71963;SDS011;59834;52.124;5.422;2023-02-13T14:56:20;19.75;;;9.23;;
71963;SDS011;59834;52.124;5.422;2023-02-13T14:59:03;15.30;;;8.93;;
71963;SDS011;59834;52.124;5.422;2023-02-13T15:02:30;13.63;;;8.00;;
71963;SDS011;59834;52.124;5.422;2023-02-13T15:04:45;14.38;;;8.55;;
71963;SDS011;59834;52.124;5.422;2023-02-13T15:07:17;18.48;;;9.18;;
71963;SDS011;59834;52.124;5.422;2023-02-13T15:09:50;14.32;;;9.40;;
71963;SDS011;59834;52.124;5.422;2023-02-13T15:12:24;14.57;;;8.52;;
71963;SDS011;59834;52.124;5.422;2023-02-13T15:14:52;17.17;;;9.37;;
71963;SDS011;59834;52.124;5.422;2023-02-13T15:17:20;16.33;;;9.23;;
71963;SDS011;59834;52.124;5.422;2023-02-13T15:19:50;18.35;;;9.70;;
71963;SDS011;59834;52.124;5.422;2023-02-13T15:25:02;18.77;;;9.00;;
71963;SDS011;59834;52.124;5.422;2023-02-13T15:27:30;15.07;;;8.27;;
71963;SDS011;59834;52.124;5.422;2023-02-13T15:30:00;14.32;;;9.02;;
71963;SDS011;59834;52.124;5.422;2023-02-13T15:32:32;15.90;;;8.48;;
71963;SDS011;59834;52.124;5.422;2023-02-13T15:38:17;14.45;;;8.88;;
71963;SDS011;59834;52.124;5.422;2023-02-13T15:41:08;17.57;;;9.33;;
71963;SDS011;59834;52.124;5.422;2023-02-13T15:43:39;19.98;;;9.43;;
71963;SDS011;59834;52.124;5.422;2023-02-13T15:49:05;17.02;;;8.90;;
71963;SDS011;59834;52.124;5.422;2023-02-13T15:51:34;20.95;;;9.23;;
71963;SDS011;59834;52.124;5.422;2023-02-13T15:54:05;16.23;;;9.27;;
71963;SDS011;59834;52.124;5.422;2023-02-13T15:56:47;13.60;;;8.48;;
71963;SDS011;59834;52.124;5.422;2023-02-13T15:59:14;15.75;;;8.90;;
71963;SDS011;59834;52.124;5.422;2023-02-13T16:01:43;13.88;;;8.35;;
71963;SDS011;59834;52.124;5.422;2023-02-13T16:04:14;18.95;;;9.02;;
71963;SDS011;59834;52.124;5.422;2023-02-13T16:06:43;17.60;;;9.73;;
71963;SDS011;59834;52.124;5.422;2023-02-13T16:09:21;16.88;;;9.15;;
71963;SDS011;59834;52.124;5.422;2023-02-13T16:14:54;16.30;;;9.40;;
71963;SDS011;59834;52.124;5.422;2023-02-13T16:25:09;15.60;;;9.27;;
71963;SDS011;59834;52.124;5.422;2023-02-13T16:27:51;19.05;;;9.63;;
71963;SDS011;59834;52.124;5.422;2023-02-13T16:30:41;21.05;;;9.45;;
71963;SDS011;59834;52.124;5.422;2023-02-13T16:35:40;19.83;;;9.20;;
71963;SDS011;59834;52.124;5.422;2023-02-13T16:41:03;18.80;;;9.23;;
71963;SDS011;59834;52.124;5.422;2023-02-13T16:43:38;19.05;;;9.40;;
71963;SDS011;59834;52.124;5.422;2023-02-13T16:46:35;16.10;;;8.67;;
71963;SDS011;59834;52.124;5.422;2023-02-13T16:51:40;17.27;;;9.50;;
71963;SDS011;59834;52.124;5.422;2023-02-13T16:56:46;16.20;;;9.18;;
71963;SDS011;59834;52.124;5.422;2023-02-13T16:59:18;17.20;;;8.87;;
71963;SDS011;59834;52.124;5.422;2023-02-13T17:02:01;20.13;;;9.20;;
71963;SDS011;59834;52.124;5.422;2023-02-13T17:04:43;21.10;;;10.27;;
71963;SDS011;59834;52.124;5.422;2023-02-13T17:07:29;17.23;;;9.15;;
71963;SDS011;59834;52.124;5.422;2023-02-13T17:10:00;22.17;;;10.30;;
71963;SDS011;59834;52.124;5.422;2023-02-13T17:12:30;17.13;;;9.33;;
71963;SDS011;59834;52.124;5.422;2023-02-13T17:15:00;19.85;;;9.85;;
71963;SDS011;59834;52.124;5.422;2023-02-13T17:17:28;16.75;;;9.05;;
71963;SDS011;59834;52.124;5.422;2023-02-13T17:19:59;18.13;;;9.70;;
71963;SDS011;59834;52.124;5.422;2023-02-13T17:22:31;21.33;;;9.90;;
71963;SDS011;59834;52.124;5.422;2023-02-13T17:25:01;17.37;;;9.03;;
71963;SDS011;59834;52.124;5.422;2023-02-13T17:27:31;20.83;;;10.05;;
71963;SDS011;59834;52.124;5.422;2023-02-13T17:29:57;18.10;;;9.57;;
71963;SDS011;59834;52.124;5.422;2023-02-13T17:32:24;23.00;;;10.65;;
71963;SDS011;59834;52.124;5.422;2023-02-13T17:34:52;16.52;;;9.50;;
71963;SDS011;59834;52.124;5.422;2023-02-13T17:37:23;17.30;;;9.40;;
71963;SDS011;59834;52.124;5.422;2023-02-13T17:39:51;18.88;;;9.48;;
71963;SDS011;59834;52.124;5.422;2023-02-13T17:42:20;21.73;;;11.07;;
71963;SDS011;59834;52.124;5.422;2023-02-13T17:44:49;21.75;;;10.98;;
71963;SDS011;59834;52.124;5.422;2023-02-13T17:47:16;28.23;;;14.52;;
71963;SDS011;59834;52.124;5.422;2023-02-13T17:49:43;21.00;;;11.00;;
71963;SDS011;59834;52.124;5.422;2023-02-13T17:52:14;20.38;;;10.63;;
71963;SDS011;59834;52.124;5.422;2023-02-13T17:54:43;19.63;;;10.63;;
71963;SDS011;59834;52.124;5.422;2023-02-13T17:57:12;22.90;;;11.85;;
71963;SDS011;59834;52.124;5.422;2023-02-13T17:59:40;19.58;;;11.23;;
71963;SDS011;59834;52.124;5.422;2023-02-13T18:02:17;25.93;;;11.67;;
71963;SDS011;59834;52.124;5.422;2023-02-13T18:04:45;21.98;;;11.00;;
71963;SDS011;59834;52.124;5.422;2023-02-13T18:07:13;24.67;;;10.95;;
71963;SDS011;59834;52.124;5.422;2023-02-13T18:09:42;22.42;;;10.82;;
71963;SDS011;59834;52.124;5.422;2023-02-13T18:12:13;18.00;;;9.98;;
71963;SDS011;59834;52.124;5.422;2023-02-13T18:14:41;17.87;;;9.80;;